Washington, DC (20306)

12:45 PM EDT on July 29, 2015 (GMT -0400)
Brightwood | | Change Station
CLOSE
Current Station
Personal Weather Station
Location: Washington, DC
Elevation: 279 ft
Nearby Weather Stations

Elev 279 ft 38.97 °N, 77.03 °W | Updated 23 seconds ago

Overcast
Overcast
86.7 °F
Feels Like 93 °F
N
0.2
Wind Variable Wind from West
Gusts 2.5 mph

Today
High -- | Low -- °F
--% Chance of Precip.
Yesterday
High -- | Low -- °F
Precip. -- in
6:06 AM 8:22 PM
Waxing Gibbous, 96% visible
Pressure 29.99 in
Visibility 10.0 miles
Clouds Scattered Clouds 3500 ft
Mostly Cloudy 4600 ft
Mostly Cloudy 5500 ft
Heat Index 93 °F
Dew Point 72 °F
Humidity 62%
Rainfall 0.00 in
Snow Depth Not available.
UV 4.0 out of 12
Pollen 5.60 out of 12
Air Quality Not available.
Flu Activity Not available.
METAR KCGS 291630Z AUTO 23006KT 10SM SCT035 BKN046 BKN055 31/22 A2999 RMK AO1

More Conditions Fewer Conditions

Pressure 29.99 in
Visibility 10.0 miles
Clouds Scattered Clouds 3500 ft
Mostly Cloudy 4600 ft
Mostly Cloudy 5500 ft
Heat Index 93 °F
Dew Point 72 °F
Humidity 62%
Rainfall 0.00 in
Snow Depth Not available.
UV 4.0 out of 12
Pollen 5.60 out of 12
Air Quality Not available.
Flu Activity Not available.
METAR KCGS 291630Z AUTO 23006KT 10SM SCT035 BKN046 BKN055 31/22 A2999 RMK AO1

More Conditions Fewer Conditions

10-Day Weather Forecast

×

Almanac

Astronomy

Jul. 29, 2015 Rise Set
Actual Time
Civil Twilight
Nautical Twilight
Astronomical Twilight
Moon
Length of Visible Light
Length of Day
Tomorrow will be .
, % of the Moon is Illuminated

Today's Extremes

State Highs State Lows

Community

WunderPhotos

Upload Photos

1,842,130 photos uploaded!

WunderBlogs® & News

Nearby

Air Quality

  Air Quality AQ Index Pollutant
Not available.

Snow Depth

Station Depth Elevation

Earthquake Activity

City Distance Mag. Time & Date
Minimum magnitude displayed is 2.5.

Coastal Water Temperatures

Place Temperature

Stations

Nearby Weather Stations

Station Location Temp. Windchill Dew Point Humidity Wind Precip. Elev Updated Type